Time;durP1;ratioP1;P1;durP2;ratioP2;P2;SDS_P1;SDS_P2;PMS_P1;PMS_P2;Temp;Humidity;BMP_temperature;BMP_pressure;BME280_temperature;BME280_humidity;BME280_pressure;Samples;Min_cycle;Max_cycle;Signal;HPM_P1;HPM_P2
2021/10/02 00:44:47;;;;;;;362.37;339.87;;;13.90;99.90;;;;;;5055684;28;20412;-81
2021/10/02 00:47:18;;;;;;;372.40;349.03;;;13.80;99.90;;;;;;5037974;28;20437;-81
2021/10/02 00:49:45;;;;;;;394.90;370.57;;;13.90;99.90;;;;;;5037947;28;20395;-81
2021/10/02 00:52:16;;;;;;;373.53;350.57;;;13.80;99.90;;;;;;5055970;28;20395;-81
2021/10/02 00:54:43;;;;;;;393.73;369.37;;;13.90;99.90;;;;;;5057030;28;20398;-81
2021/10/02 00:57:09;;;;;;;399.03;374.93;;;13.90;99.90;;;;;;5056539;28;20522;-81
2021/10/02 00:59:36;;;;;;;371.37;348.47;;;13.90;99.90;;;;;;5107295;23;20529;-84
2021/10/02 01:02:16;;;;;;;405.23;379.87;;;14.00;99.90;;;;;;5040579;28;20407;-83
2021/10/02 01:04:57;;;;;;;395.37;370.53;;;13.90;99.90;;;;;;5057674;28;20407;-83
2021/10/02 01:07:38;;;;;;;346.17;323.97;;;14.00;99.90;;;;;;5057616;28;20437;-83
2021/10/02 01:10:44;;;;;;;388.17;363.87;;;14.00;99.90;;;;;;5057473;28;20391;-84
2021/10/02 01:13:32;;;;;;;395.00;371.13;;;14.00;99.90;;;;;;5038893;28;20407;-84
2021/10/02 01:16:13;;;;;;;365.60;342.53;;;14.00;99.90;;;;;;5038570;28;20435;-84
2021/10/02 01:18:59;;;;;;;393.30;368.37;;;14.10;99.90;;;;;;5037594;28;20427;-83
2021/10/02 01:21:47;;;;;;;390.53;365.77;;;14.10;99.90;;;;;;5057813;28;20478;-84
2021/10/02 01:24:34;;;;;;;379.13;355.27;;;14.00;99.90;;;;;;5062457;28;20443;-84
2021/10/02 01:27:38;;;;;;;329.30;308.03;;;14.10;99.90;;;;;;5042750;28;20431;-83
2021/10/02 01:30:10;;;;;;;343.23;321.80;;;14.10;99.90;;;;;;5040442;28;20482;-83
2021/10/02 01:33:08;;;;;;;380.60;357.30;;;14.10;99.90;;;;;;5061147;28;20383;-83
2021/10/02 01:35:45;;;;;;;340.43;319.43;;;14.10;99.90;;;;;;5060722;28;20407;-84
2021/10/02 01:49:34;;;;;;;375.17;351.07;;;14.20;99.90;;;;;;5001191;28;20466;-83
2021/10/02 01:52:00;;;;;;;414.80;389.30;;;14.10;99.90;;;;;;5038907;28;20403;-84
2021/10/02 01:54:28;;;;;;;398.50;374.30;;;14.10;99.90;;;;;;5063762;28;20405;-84
2021/10/02 01:56:56;;;;;;;385.57;362.37;;;14.10;99.90;;;;;;5043986;28;20473;-84
2021/10/02 01:59:25;;;;;;;421.70;396.10;;;14.10;99.90;;;;;;5043649;28;20771;-84
2021/10/02 02:01:52;;;;;;;380.47;357.07;;;14.20;99.90;;;;;;5045200;28;20427;-84
2021/10/02 02:04:20;;;;;;;388.27;363.97;;;14.10;99.90;;;;;;5063714;28;20442;-83
2021/10/02 02:06:47;;;;;;;378.47;355.20;;;14.10;99.90;;;;;;5045483;28;20418;-83
2021/10/02 02:09:16;;;;;;;442.03;415.13;;;14.20;99.90;;;;;;5063253;28;20441;-84
2021/10/02 02:11:43;;;;;;;367.77;345.27;;;14.20;99.90;;;;;;5062619;28;20395;-84
2021/10/02 02:14:11;;;;;;;378.90;355.73;;;14.20;99.90;;;;;;5062609;28;20406;-84
2021/10/02 02:16:39;;;;;;;367.23;344.50;;;14.10;99.90;;;;;;5062421;28;20902;-84
2021/10/02 02:19:06;;;;;;;388.50;365.03;;;14.20;99.90;;;;;;5062318;28;20402;-84
2021/10/02 02:21:34;;;;;;;390.97;367.10;;;14.10;99.90;;;;;;5043772;28;20995;-84
2021/10/02 02:24:00;;;;;;;396.10;372.17;;;14.20;99.90;;;;;;5062206;28;20526;-84
2021/10/02 02:26:27;;;;;;;398.10;374.20;;;14.20;99.90;;;;;;5060993;28;20434;-84
2021/10/02 02:28:53;;;;;;;390.43;366.90;;;14.20;99.90;;;;;;5043478;28;20774;-84
2021/10/02 02:31:21;;;;;;;413.27;388.10;;;14.20;99.90;;;;;;5044387;28;20403;-84
2021/10/02 02:33:47;;;;;;;393.87;370.57;;;14.20;99.90;;;;;;5044808;28;20422;-84
2021/10/02 02:36:13;;;;;;;417.27;392.77;;;14.10;99.90;;;;;;5061413;28;20403;-84
2021/10/02 02:38:39;;;;;;;407.77;383.10;;;14.10;99.90;;;;;;5059521;28;20480;-84
2021/10/02 02:41:05;;;;;;;403.03;378.67;;;14.10;99.90;;;;;;5060093;28;20250;-84
2021/10/02 02:43:34;;;;;;;421.77;397.23;;;14.10;99.90;;;;;;5041365;28;20195;-83
2021/10/02 02:46:36;;;;;;;394.97;371.37;;;14.10;99.90;;;;;;5059165;28;20403;-84
2021/10/02 02:49:20;;;;;;;377.23;354.70;;;14.10;99.90;;;;;;5060252;28;20383;-84
2021/10/02 02:52:05;;;;;;;359.00;337.33;;;14.20;99.90;;;;;;5059697;28;20409;-84
2021/10/02 02:54:49;;;;;;;366.97;344.67;;;14.20;99.90;;;;;;5058455;28;20450;-84
2021/10/02 02:57:19;;;;;;;370.73;348.13;;;14.20;99.90;;;;;;5059685;28;20415;-83
2021/10/02 02:59:56;;;;;;;405.03;381.17;;;14.10;99.90;;;;;;5041962;28;20427;-84
2021/10/02 03:02:23;;;;;;;391.27;368.00;;;14.10;99.90;;;;;;5060948;28;20469;-83
2021/10/02 03:04:57;;;;;;;388.83;365.93;;;14.10;99.90;;;;;;5060302;28;20411;-83
2021/10/02 03:07:25;;;;;;;383.33;360.53;;;14.10;99.90;;;;;;5059403;28;20938;-83
2021/10/02 03:09:53;;;;;;;417.90;392.80;;;14.10;99.90;;;;;;5059145;28;20395;-83
2021/10/02 03:12:25;;;;;;;394.37;370.67;;;14.10;99.90;;;;;;5058051;28;20971;-83
2021/10/02 03:14:53;;;;;;;394.33;370.83;;;14.10;99.90;;;;;;5057595;28;20735;-83
2021/10/02 03:17:19;;;;;;;385.20;362.33;;;14.10;99.90;;;;;;5060463;28;20419;-84
2021/10/02 03:19:46;;;;;;;398.80;375.43;;;14.10;99.90;;;;;;5059884;28;20426;-83
2021/10/02 03:22:14;;;;;;;390.83;367.07;;;14.10;99.90;;;;;;5044311;28;20482;-83
2021/10/02 03:24:40;;;;;;;369.90;347.17;;;14.10;99.90;;;;;;5044489;28;20454;-84
2021/10/02 03:27:08;;;;;;;376.37;353.53;;;14.10;99.90;;;;;;5043424;28;20974;-83
2021/10/02 03:29:35;;;;;;;345.67;324.53;;;14.10;99.90;;;;;;5058546;28;20395;-83
2021/10/02 03:32:06;;;;;;;331.57;310.63;;;14.20;99.90;;;;;;5058459;28;20487;-83
2021/10/02 03:34:33;;;;;;;343.73;322.27;;;14.10;99.90;;;;;;5041750;28;20399;-83
2021/10/02 03:37:00;;;;;;;353.33;331.87;;;14.10;99.90;;;;;;5061819;28;20430;-84
2021/10/02 03:39:26;;;;;;;317.50;297.70;;;14.10;99.90;;;;;;5044316;28;20460;-84
2021/10/02 03:42:12;;;;;;;354.53;332.47;;;14.10;99.90;;;;;;5061127;28;20399;-84
2021/10/02 03:44:44;;;;;;;364.53;341.40;;;14.10;99.90;;;;;;5059598;28;20847;-84
2021/10/02 03:47:11;;;;;;;371.07;348.33;;;14.10;99.90;;;;;;5058358;28;20941;-84
2021/10/02 03:49:37;;;;;;;385.77;362.67;;;14.10;99.90;;;;;;5058657;28;20391;-84
2021/10/02 03:52:03;;;;;;;385.63;362.27;;;14.00;99.90;;;;;;5057910;28;20395;-84
2021/10/02 03:54:29;;;;;;;408.23;383.93;;;14.00;99.90;;;;;;5057223;28;20399;-84
2021/10/02 03:56:55;;;;;;;373.43;350.17;;;14.00;99.90;;;;;;5058389;28;20430;-84
2021/10/02 03:59:21;;;;;;;383.10;360.47;;;14.00;99.90;;;;;;5058552;28;20446;-84
2021/10/02 04:01:47;;;;;;;400.17;376.53;;;13.90;99.90;;;;;;5058946;28;20177;-84
2021/10/02 04:04:12;;;;;;;406.10;382.30;;;13.90;99.90;;;;;;5059677;28;20530;-84
2021/10/02 04:06:38;;;;;;;395.67;372.17;;;13.90;99.90;;;;;;5059459;28;20153;-84
2021/10/02 04:09:04;;;;;;;441.87;415.80;;;14.00;99.90;;;;;;5058031;28;20243;-83
2021/10/02 04:11:30;;;;;;;380.10;357.27;;;13.90;99.90;;;;;;5058987;28;20694;-83
2021/10/02 04:13:57;;;;;;;425.07;400.23;;;14.00;99.90;;;;;;5058091;28;20591;-83
2021/10/02 04:16:22;;;;;;;432.10;406.90;;;13.90;99.90;;;;;;5057869;28;20403;-83
2021/10/02 04:18:48;;;;;;;429.67;403.43;;;13.90;99.90;;;;;;5056398;28;20426;-83
2021/10/02 04:21:13;;;;;;;411.13;387.27;;;13.90;99.90;;;;;;5056471;28;20561;-83
2021/10/02 04:23:39;;;;;;;420.70;396.40;;;13.90;99.90;;;;;;5058099;28;20195;-83
2021/10/02 04:26:05;;;;;;;416.53;392.10;;;13.90;99.90;;;;;;5056835;28;20171;-83
2021/10/02 04:28:31;;;;;;;440.53;415.43;;;13.90;99.90;;;;;;5056022;28;20180;-83
2021/10/02 04:30:57;;;;;;;431.20;406.20;;;13.90;99.90;;;;;;5057533;28;20762;-83
2021/10/02 04:33:23;;;;;;;467.40;440.33;;;13.90;99.90;;;;;;5057896;28;20168;-83
2021/10/02 04:35:49;;;;;;;445.17;419.70;;;13.90;99.90;;;;;;5056860;28;20164;-83
2021/10/02 04:38:15;;;;;;;446.03;420.20;;;13.80;99.90;;;;;;5056278;28;20423;-83
2021/10/02 04:40:40;;;;;;;448.87;422.83;;;13.80;99.90;;;;;;5038478;28;20211;-83
2021/10/02 04:43:06;;;;;;;440.43;415.10;;;13.80;99.90;;;;;;5056749;28;20192;-83
2021/10/02 04:45:32;;;;;;;456.93;430.27;;;13.80;99.90;;;;;;5056113;28;20164;-83
2021/10/02 04:47:57;;;;;;;424.00;399.57;;;13.90;99.90;;;;;;5055979;28;20184;-83
2021/10/02 04:50:24;;;;;;;439.20;413.97;;;13.80;99.90;;;;;;5056448;28;20197;-83
2021/10/02 04:52:54;;;;;;;431.23;406.63;;;13.90;99.90;;;;;;5037780;28;20426;-83
2021/10/02 04:55:20;;;;;;;416.63;392.43;;;13.90;99.90;;;;;;5055929;28;20216;-83
2021/10/02 04:57:46;;;;;;;430.60;405.83;;;13.90;99.90;;;;;;5055496;28;20445;-83
2021/10/02 05:00:13;;;;;;;437.37;411.43;;;13.90;99.90;;;;;;5038424;28;20933;-83
2021/10/02 05:02:38;;;;;;;439.13;413.97;;;13.90;99.90;;;;;;5038178;28;20917;-83
2021/10/02 05:05:04;;;;;;;424.53;399.70;;;13.90;99.90;;;;;;5055196;28;20566;-83
2021/10/02 05:07:30;;;;;;;403.00;379.20;;;13.80;99.90;;;;;;5037362;28;20568;-83
2021/10/02 05:09:56;;;;;;;459.83;433.07;;;13.80;99.90;;;;;;5055360;28;20403;-83
2021/10/02 05:12:21;;;;;;;428.33;403.50;;;13.80;99.90;;;;;;5055403;28;20245;-83
2021/10/02 05:14:47;;;;;;;429.53;405.00;;;13.80;99.90;;;;;;5056292;28;20486;-83
2021/10/02 05:17:15;;;;;;;454.03;427.50;;;13.80;99.90;;;;;;5037939;28;20196;-83
2021/10/02 05:19:40;;;;;;;420.10;396.13;;;13.80;99.90;;;;;;5055626;28;20175;-83
2021/10/02 05:22:06;;;;;;;421.40;396.87;;;13.80;99.90;;;;;;5055878;28;20898;-83
2021/10/02 05:24:38;;;;;;;435.33;409.60;;;13.70;99.90;;;;;;5037290;28;20196;-83
2021/10/02 05:27:09;;;;;;;402.87;379.57;;;13.70;99.90;;;;;;5038514;28;20442;-83
2021/10/02 05:29:40;;;;;;;440.70;415.63;;;13.70;99.90;;;;;;5055824;28;20494;-84
2021/10/02 05:32:08;;;;;;;406.37;382.63;;;13.70;99.90;;;;;;5037445;28;20453;-83
2021/10/02 05:34:34;;;;;;;450.83;424.63;;;13.70;99.90;;;;;;5055681;28;20411;-84
2021/10/02 05:37:00;;;;;;;479.77;453.03;;;13.70;99.90;;;;;;5037079;28;20438;-83
2021/10/02 05:39:26;;;;;;;448.53;422.90;;;13.60;99.90;;;;;;5038122;28;20488;-84
2021/10/02 05:41:52;;;;;;;452.77;426.67;;;13.60;99.90;;;;;;5055942;28;20837;-84
2021/10/02 05:44:18;;;;;;;443.40;418.03;;;13.60;99.90;;;;;;5054981;28;20442;-84
2021/10/02 05:46:44;;;;;;;456.73;431.17;;;13.60;99.90;;;;;;5055231;28;20418;-83
2021/10/02 05:49:10;;;;;;;449.37;423.37;;;13.60;99.90;;;;;;5055940;28;20945;-84
2021/10/02 05:51:36;;;;;;;417.57;394.27;;;13.50;99.90;;;;;;5055285;28;20403;-84
2021/10/02 05:54:02;;;;;;;429.73;404.77;;;13.60;99.90;;;;;;5055554;28;20244;-84
2021/10/02 05:56:27;;;;;;;423.57;398.90;;;13.60;99.90;;;;;;5037919;28;20210;-84
2021/10/02 05:58:54;;;;;;;379.10;356.47;;;13.60;99.90;;;;;;5055282;28;20914;-84
2021/10/02 06:01:20;;;;;;;395.17;372.27;;;13.70;99.90;;;;;;5037361;28;20179;-84
2021/10/02 06:03:46;;;;;;;420.03;395.97;;;13.70;99.90;;;;;;5037353;28;20818;-84
2021/10/02 06:06:15;;;;;;;428.37;403.63;;;13.60;99.90;;;;;;5055536;28;20422;-84
2021/10/02 06:08:41;;;;;;;421.43;396.73;;;13.60;99.90;;;;;;5037659;28;20462;-84
2021/10/02 06:11:07;;;;;;;442.63;417.63;;;13.60;99.90;;;;;;5037342;28;20415;-83
2021/10/02 06:13:35;;;;;;;439.17;414.07;;;13.70;99.90;;;;;;5054967;28;20627;-83
2021/10/02 06:16:08;;;;;;;433.40;408.20;;;13.60;99.90;;;;;;5054558;28;20407;-83
2021/10/02 06:18:36;;;;;;;452.57;426.60;;;13.60;99.90;;;;;;5056941;28;20438;-84
2021/10/02 06:21:07;;;;;;;432.77;407.40;;;13.60;99.90;;;;;;5058315;28;20553;-84
2021/10/02 06:23:32;;;;;;;429.33;404.10;;;13.60;99.90;;;;;;5040972;28;20474;-84
2021/10/02 06:25:58;;;;;;;434.03;409.27;;;13.70;99.90;;;;;;5058763;28;20414;-84
2021/10/02 06:28:23;;;;;;;452.70;427.03;;;13.70;99.90;;;;;;5058946;28;20187;-84
2021/10/02 06:30:49;;;;;;;441.00;415.63;;;13.70;99.90;;;;;;5058630;28;20176;-84
2021/10/02 06:33:15;;;;;;;458.03;432.17;;;13.70;99.90;;;;;;5058521;28;20174;-84
2021/10/02 06:35:41;;;;;;;428.67;404.00;;;13.70;99.90;;;;;;5059663;28;20407;-84
2021/10/02 06:38:06;;;;;;;450.53;424.73;;;13.70;99.90;;;;;;5041276;28;20431;-84
2021/10/02 06:40:32;;;;;;;452.87;427.33;;;13.70;99.90;;;;;;5058677;28;20180;-84
2021/10/02 06:42:58;;;;;;;391.33;368.70;;;13.70;99.90;;;;;;5058851;28;20189;-84
2021/10/02 06:45:23;;;;;;;419.97;395.70;;;13.80;99.90;;;;;;5058275;28;20172;-84
2021/10/02 06:47:49;;;;;;;406.53;383.70;;;13.80;99.90;;;;;;5057992;28;20211;-84
2021/10/02 06:50:15;;;;;;;379.20;357.53;;;13.70;99.90;;;;;;5040014;28;20303;-84
2021/10/02 06:52:41;;;;;;;415.37;391.73;;;13.80;99.90;;;;;;5038565;28;20411;-83
2021/10/02 06:55:07;;;;;;;371.50;349.83;;;13.80;99.90;;;;;;5056181;28;20165;-83
2021/10/02 07:00:17;;;;;;;427.77;403.13;;;14.00;99.90;;;;;;5035739;28;20464;-83
2021/10/02 07:02:48;;;;;;;421.87;397.83;;;14.10;99.90;;;;;;5037670;28;20380;-83
2021/10/02 07:05:25;;;;;;;376.17;354.33;;;14.20;99.90;;;;;;5037267;28;20407;-83
2021/10/02 07:07:57;;;;;;;395.27;372.47;;;14.30;99.90;;;;;;5049454;28;20417;-83
2021/10/02 07:10:31;;;;;;;386.77;364.77;;;14.30;99.90;;;;;;5057734;28;20371;-83
2021/10/02 07:13:02;;;;;;;369.67;347.70;;;14.30;99.90;;;;;;5057810;28;20407;-83
2021/10/02 07:15:29;;;;;;;391.13;368.57;;;14.30;99.90;;;;;;5039824;28;20505;-83
2021/10/02 07:17:55;;;;;;;363.77;342.37;;;14.30;99.90;;;;;;5057269;28;20497;-83
2021/10/02 07:20:25;;;;;;;396.03;373.17;;;14.30;99.90;;;;;;5057499;28;20424;-83
2021/10/02 07:22:59;;;;;;;356.10;335.53;;;14.40;99.90;;;;;;5057262;28;20575;-83
2021/10/02 07:26:12;;;;;;;388.30;366.23;;;14.50;99.90;;;;;;5039276;28;20406;-83
2021/10/02 07:28:46;;;;;;;300.67;282.53;;;14.50;99.90;;;;;;5062975;22;20982;-83
2021/10/02 07:31:11;;;;;;;329.23;309.53;;;14.60;99.90;;;;;;5039315;28;20402;-82
2021/10/02 07:33:37;;;;;;;366.30;344.57;;;14.60;99.90;;;;;;5038657;28;20407;-82
2021/10/02 07:36:05;;;;;;;338.13;318.50;;;14.70;99.90;;;;;;5056682;28;20538;-81
2021/10/02 07:38:31;;;;;;;331.53;311.90;;;14.70;99.90;;;;;;5056385;28;20223;-81
2021/10/02 07:40:58;;;;;;;346.47;325.57;;;14.80;99.90;;;;;;5038444;28;20458;-81
2021/10/02 07:43:26;;;;;;;315.43;296.13;;;15.00;99.90;;;;;;5056200;28;20202;-82
2021/10/02 07:45:52;;;;;;;253.37;237.07;;;15.00;99.90;;;;;;5039479;28;20415;-82
2021/10/02 07:48:22;;;;;;;254.67;238.43;;;15.10;99.90;;;;;;5056697;28;20429;-82
2021/10/02 07:50:48;;;;;;;274.07;256.33;;;15.10;99.90;;;;;;5056181;28;20187;-81
2021/10/02 07:53:14;;;;;;;271.53;254.60;;;15.00;99.90;;;;;;5055837;28;20461;-82
2021/10/02 07:55:40;;;;;;;257.27;240.77;;;14.90;99.90;;;;;;5056839;28;20437;-83
2021/10/02 07:58:06;;;;;;;265.60;248.83;;;14.80;99.90;;;;;;5056393;28;20427;-83
2021/10/02 08:00:32;;;;;;;293.20;275.47;;;15.00;99.90;;;;;;5056112;28;20760;-83
2021/10/02 08:03:01;;;;;;;292.60;274.63;;;15.10;99.90;;;;;;5056545;28;20483;-83
2021/10/02 08:05:26;;;;;;;276.70;259.40;;;15.10;99.90;;;;;;5056878;28;20428;-83
2021/10/02 08:07:52;;;;;;;269.20;252.20;;;15.20;99.90;;;;;;5056903;28;20800;-83
2021/10/02 08:10:28;;;;;;;257.07;240.80;;;15.30;99.90;;;;;;5056809;28;20198;-83
2021/10/02 08:12:54;;;;;;;282.23;264.47;;;15.30;99.90;;;;;;5057171;28;20158;-83
2021/10/02 08:15:22;;;;;;;251.67;235.20;;;15.40;99.90;;;;;;5056656;28;20413;-83
2021/10/02 08:18:03;;;;;;;269.67;252.87;;;15.40;99.90;;;;;;5045783;23;21038;-83
2021/10/02 08:21:35;;;;;;;;;;;;;;;;;;;;;
2021/10/02 08:24:42;;;;;;;;;;;;;;;;;;;;;
2021/10/02 08:28:08;;;;;;;256.37;239.73;;;15.40;99.90;;;;;;5044177;28;20513;-83
2021/10/02 08:31:39;;;;;;;;;;;;;;;;;;;;;
2021/10/02 08:35:14;;;;;;;280.30;262.70;;;15.50;99.90;;;;;;4940181;29;20767;-83
2021/10/02 08:38:26;;;;;;;246.40;230.33;;;15.60;99.90;;;;;;4871835;28;20437;-83
2021/10/02 08:48:42;;;;;;;260.17;243.17;;;16.10;99.90;;;;;;4937575;29;20430;-83
2021/10/02 08:58:21;;;;;;;;;;;;;;;;;;;;;
2021/10/02 09:01:50;;;;;;;235.40;218.80;;;16.10;99.90;;;;;;4898430;29;20408;-83
2021/10/02 09:04:46;;;;;;;;;;;;;;;;;;;;;
2021/10/02 09:14:09;;;;;;;162.40;148.40;;;16.20;99.90;;;;;;4975914;28;20535;-83
2021/10/02 09:20:25;;;;;;;156.00;142.37;;;16.10;99.90;;;;;;4955118;28;20415;-83
2021/10/02 09:29:51;;;;;;;;;;;;;;;;;;;;;
2021/10/02 09:32:48;;;;;;;177.40;162.73;;;16.20;99.90;;;;;;4918943;29;20415;-83
2021/10/02 09:35:20;;;;;;;154.00;140.47;;;16.30;99.90;;;;;;4937110;29;20407;-83
2021/10/02 09:40:24;;;;;;;166.10;151.93;;;16.20;99.90;;;;;;4855534;26;20536;-83
2021/10/02 09:42:57;;;;;;;132.57;119.60;;;16.20;99.90;;;;;;5017472;28;20407;-83
2021/10/02 09:45:42;;;;;;;116.63;104.47;;;16.40;99.90;;;;;;5035373;28;20414;-83
2021/10/02 09:48:16;;;;;;;117.07;105.07;;;16.50;99.90;;;;;;5035670;28;20412;-83
2021/10/02 09:50:49;;;;;;;120.90;108.70;;;16.60;99.90;;;;;;5035776;28;20384;-82
2021/10/02 09:53:21;;;;;;;144.70;132.00;;;16.70;99.90;;;;;;5037835;28;20813;-83
2021/10/02 09:55:51;;;;;;;151.53;138.87;;;16.80;99.90;;;;;;5039190;28;20421;-83
2021/10/02 09:58:49;;;;;;;173.27;159.67;;;16.80;99.90;;;;;;5039738;28;20423;-83
2021/10/02 10:01:33;;;;;;;190.17;175.83;;;16.80;99.90;;;;;;5039718;28;20756;-83
2021/10/02 10:03:59;;;;;;;185.17;171.17;;;16.80;99.90;;;;;;5039251;28;20437;-82
2021/10/02 10:07:12;;;;;;;254.40;237.47;;;17.00;99.90;;;;;;5021709;28;20488;-83
2021/10/02 10:09:46;;;;;;;252.33;235.63;;;17.10;99.90;;;;;;5013636;28;20412;-83
2021/10/02 10:12:24;;;;;;;239.23;222.80;;;17.10;99.90;;;;;;5039207;28;20466;-83
2021/10/02 10:15:05;;;;;;;263.30;245.87;;;17.10;99.90;;;;;;5021465;28;20911;-83
2021/10/02 10:17:32;;;;;;;296.97;278.70;;;17.30;99.90;;;;;;5038901;28;20420;-83
2021/10/02 10:20:08;;;;;;;285.97;267.87;;;17.30;99.90;;;;;;5038899;28;20414;-83
2021/10/02 10:22:38;;;;;;;268.50;251.30;;;17.30;99.90;;;;;;5039174;28;20388;-83
2021/10/02 10:25:17;;;;;;;276.00;258.50;;;17.40;99.90;;;;;;5039147;28;20410;-83
2021/10/02 10:27:50;;;;;;;268.30;251.17;;;17.60;99.90;;;;;;5019766;28;20424;-82
2021/10/02 10:30:29;;;;;;;256.90;240.30;;;17.70;99.90;;;;;;5038936;28;20376;-82
2021/10/02 10:33:01;;;;;;;244.63;228.50;;;17.90;99.90;;;;;;5039308;28;20369;-82
2021/10/02 10:35:31;;;;;;;238.27;222.40;;;18.00;99.90;;;;;;5038406;28;20372;-82
2021/10/02 10:37:57;;;;;;;241.13;225.13;;;18.00;99.90;;;;;;5020190;28;20427;-82
2021/10/02 10:40:23;;;;;;;232.73;217.00;;;18.00;99.90;;;;;;5038465;28;20412;-82
2021/10/02 10:42:50;;;;;;;274.90;257.27;;;18.10;99.90;;;;;;5039118;28;20396;-82
2021/10/02 10:45:16;;;;;;;198.17;182.93;;;18.10;99.90;;;;;;5038469;28;20168;-82
2021/10/02 10:47:46;;;;;;;166.80;153.37;;;18.30;99.90;;;;;;5038854;28;20416;-82
2021/10/02 10:50:12;;;;;;;148.63;135.93;;;18.30;99.90;;;;;;5038102;28;20169;-81
2021/10/02 10:52:40;;;;;;;130.33;118.17;;;18.10;99.90;;;;;;5037128;28;20458;-82
2021/10/02 10:55:18;;;;;;;191.90;177.30;;;18.10;99.90;;;;;;5037928;28;20408;-82
2021/10/02 10:57:50;;;;;;;164.23;150.63;;;18.00;99.90;;;;;;5037065;28;20436;-82
2021/10/02 11:00:19;;;;;;;123.77;111.80;;;18.00;99.90;;;;;;5020154;28;20828;-82
2021/10/02 11:02:56;;;;;;;197.37;182.53;;;18.00;99.90;;;;;;5020199;28;20884;-82
2021/10/02 11:05:36;;;;;;;278.23;260.77;;;17.80;99.90;;;;;;5038153;28;20462;-82
2021/10/02 11:08:10;;;;;;;296.87;278.87;;;18.00;99.90;;;;;;5038444;28;20446;-82
2021/10/02 11:10:46;;;;;;;236.33;219.80;;;18.10;99.90;;;;;;5038141;28;20483;-82
2021/10/02 11:13:20;;;;;;;185.37;170.97;;;18.30;99.90;;;;;;5038219;28;20410;-82
2021/10/02 11:15:48;;;;;;;172.57;158.80;;;18.30;99.90;;;;;;5020303;28;20412;-82
2021/10/02 11:18:39;;;;;;;119.10;107.57;;;18.50;99.90;;;;;;5036568;28;20497;-82
2021/10/02 11:21:04;;;;;;;106.00;94.87;;;18.40;99.90;;;;;;5037863;28;20403;-82
2021/10/02 11:23:41;;;;;;;173.80;159.30;;;18.30;99.90;;;;;;5038270;28;20443;-82
2021/10/02 11:26:43;;;;;;;146.63;133.63;;;18.30;99.90;;;;;;5038263;28;20211;-82
2021/10/02 11:29:20;;;;;;;110.70;99.03;;;18.60;99.90;;;;;;5019961;28;20457;-81
2021/10/02 11:31:49;;;;;;;131.27;119.13;;;18.40;99.90;;;;;;5037871;28;20384;-81
2021/10/02 11:34:23;;;;;;;164.63;151.10;;;18.40;99.90;;;;;;5038102;28;20486;-82
2021/10/02 11:36:55;;;;;;;252.63;235.77;;;18.20;99.90;;;;;;5020406;28;20435;-82
2021/10/02 11:39:26;;;;;;;237.27;221.00;;;18.20;99.90;;;;;;5020450;28;20978;-82
2021/10/02 11:41:53;;;;;;;131.63;119.47;;;18.40;99.90;;;;;;5037567;28;20418;-81
2021/10/02 11:44:35;;;;;;;250.17;233.40;;;18.60;99.90;;;;;;5037455;28;21024;-81
2021/10/02 11:47:38;;;;;;;182.77;168.17;;;18.70;99.90;;;;;;5037654;28;20823;-82
2021/10/02 11:50:06;;;;;;;133.73;121.43;;;18.70;99.90;;;;;;5021186;28;20499;-81
2021/10/02 11:52:54;;;;;;;93.73;70.87;;;19.00;99.90;;;;;;5037152;28;20491;-81
2021/10/02 11:55:41;;;;;;;90.97;73.77;;;18.70;99.90;;;;;;5036545;28;20466;-82
2021/10/02 11:58:07;;;;;;;100.57;89.67;;;18.40;99.90;;;;;;5037594;28;20451;-82
2021/10/02 12:00:44;;;;;;;117.47;105.90;;;18.50;99.90;;;;;;5036602;28;20411;-82
2021/10/02 12:03:12;;;;;;;105.63;94.63;;;18.40;99.90;;;;;;5036142;28;20189;-82
2021/10/02 12:05:40;;;;;;;85.47;58.57;;;18.50;99.90;;;;;;5037353;28;20915;-82
2021/10/02 12:08:08;;;;;;;92.17;73.47;;;18.50;99.90;;;;;;5037458;28;20467;-82
2021/10/02 12:11:13;;;;;;;115.53;103.90;;;18.50;99.90;;;;;;5037133;28;20400;-81
2021/10/02 12:13:45;;;;;;;90.73;72.90;;;18.70;99.90;;;;;;5036006;28;20423;-81
2021/10/02 12:16:21;;;;;;;83.20;51.47;;;18.80;99.90;;;;;;5036386;28;20385;-81
2021/10/02 12:18:58;;;;;;;133.20;120.50;;;19.00;99.90;;;;;;5036920;28;20438;-81
2021/10/02 12:21:24;;;;;;;88.50;56.83;;;19.10;99.90;;;;;;5037001;28;20395;-81
2021/10/02 12:24:02;;;;;;;74.17;31.17;;;19.10;99.90;;;;;;5036682;28;20436;-82
2021/10/02 12:32:18;;;;;;;92.47;82.27;;;19.00;99.90;;;;;;4984867;28;20411;-81
2021/10/02 12:35:16;;;;;;;131.30;119.70;;;19.00;99.90;;;;;;5055892;28;20403;-81
2021/10/02 12:38:15;;;;;;;118.13;107.10;;;19.00;99.90;;;;;;5056404;28;20503;-81
2021/10/02 12:41:06;;;;;;;141.43;129.50;;;18.80;99.90;;;;;;5055894;28;20396;-82
2021/10/02 12:43:34;;;;;;;106.73;95.97;;;18.90;99.90;;;;;;5056071;28;20465;-82
2021/10/02 12:46:24;;;;;;;131.47;119.87;;;18.90;99.90;;;;;;5038341;28;20770;-82
2021/10/02 12:48:52;;;;;;;135.57;123.77;;;18.80;99.90;;;;;;5056381;28;20830;-82
2021/10/02 12:51:30;;;;;;;123.20;111.80;;;18.90;99.90;;;;;;5056318;28;20490;-82
2021/10/02 12:54:03;;;;;;;135.93;124.10;;;18.80;99.90;;;;;;5056317;28;20417;-82
2021/10/02 12:57:23;;;;;;;120.50;109.33;;;18.80;99.90;;;;;;5037668;28;20403;-81
2021/10/02 13:00:08;;;;;;;123.90;112.50;;;18.70;99.90;;;;;;5123580;22;20528;-80
2021/10/02 13:02:50;;;;;;;140.57;128.70;;;18.90;99.90;;;;;;5041132;28;20487;-79
2021/10/02 13:05:21;;;;;;;141.70;129.73;;;19.00;99.90;;;;;;5039793;28;20778;-79
2021/10/02 13:07:58;;;;;;;90.23;75.30;;;19.20;99.90;;;;;;5058758;28;20488;-80
2021/10/02 13:10:26;;;;;;;83.10;53.77;;;19.40;99.90;;;;;;5060065;28;20406;-79
2021/10/02 13:13:00;;;;;;;79.37;43.37;;;19.20;99.90;;;;;;5041325;28;20941;-79
2021/10/02 13:15:30;;;;;;;79.67;44.10;;;19.20;99.90;;;;;;5059726;28;20755;-79
2021/10/02 13:18:09;;;;;;;88.20;59.43;;;19.20;99.90;;;;;;5059253;28;20415;-79
2021/10/02 13:20:41;;;;;;;83.83;52.07;;;19.30;99.90;;;;;;5059513;28;20382;-79
2021/10/02 13:23:16;;;;;;;83.87;56.50;;;19.30;99.90;;;;;;5059426;28;20461;-80
2021/10/02 13:25:56;;;;;;;79.33;45.90;;;19.50;99.90;;;;;;5059658;28;20387;-80
2021/10/02 13:28:43;;;;;;;81.80;47.17;;;19.40;99.90;;;;;;5060938;28;20434;-79
2021/10/02 13:31:20;;;;;;;79.80;46.17;;;19.40;99.90;;;;;;5063593;28;20383;-79
2021/10/02 13:33:52;;;;;;;79.63;42.60;;;19.40;99.90;;;;;;5046187;28;20444;-79
2021/10/02 13:36:28;;;;;;;79.17;45.43;;;19.40;99.90;;;;;;5062809;28;20391;-80
2021/10/02 13:39:05;;;;;;;78.63;42.30;;;19.20;98.60;;;;;;5063855;28;20890;-79
2021/10/02 13:41:31;;;;;;;81.77;51.57;;;19.00;99.20;;;;;;5064871;28;20747;-80
2021/10/02 13:44:02;;;;;;;83.83;48.63;;;19.00;98.90;;;;;;5064167;28;20442;-79
2021/10/02 13:46:34;;;;;;;99.10;84.63;;;18.90;99.10;;;;;;5062229;28;20535;-81
2021/10/02 13:49:04;;;;;;;91.93;81.10;;;18.90;98.10;;;;;;5045327;28;20922;-80
2021/10/02 13:51:30;;;;;;;128.67;117.17;;;19.20;98.10;;;;;;5063227;28;20403;-79
2021/10/02 13:53:56;;;;;;;84.83;62.37;;;19.20;95.40;;;;;;5062801;28;20495;-79
2021/10/02 13:56:31;;;;;;;105.80;94.73;;;19.10;97.20;;;;;;5062594;28;20438;-80
2021/10/02 13:58:57;;;;;;;132.83;120.83;;;18.90;96.40;;;;;;5059890;28;20418;-80
2021/10/02 14:01:23;;;;;;;107.23;96.53;;;18.90;96.90;;;;;;5060156;28;20401;-79
2021/10/02 14:03:48;;;;;;;82.77;56.10;;;18.80;96.20;;;;;;5058951;28;20192;-79
2021/10/02 14:06:14;;;;;;;75.73;35.33;;;18.60;96.80;;;;;;5059792;28;20173;-79
2021/10/02 14:08:40;;;;;;;76.40;36.97;;;18.50;97.60;;;;;;5059253;28;20722;-80
2021/10/02 14:11:05;;;;;;;80.93;41.03;;;18.60;98.50;;;;;;5059837;28;20164;-79
2021/10/02 14:13:31;;;;;;;82.23;49.30;;;18.70;98.00;;;;;;5058754;28;20172;-79
2021/10/02 14:15:57;;;;;;;79.73;43.40;;;18.80;98.70;;;;;;5040819;28;20176;-80
2021/10/02 14:18:23;;;;;;;78.73;42.17;;;18.60;97.30;;;;;;5059418;28;20184;-79
2021/10/02 14:20:48;;;;;;;76.83;35.00;;;18.70;98.80;;;;;;5059054;28;20164;-79
2021/10/02 14:23:14;;;;;;;77.93;37.53;;;18.70;99.00;;;;;;5058764;28;20213;-79
2021/10/02 14:25:40;;;;;;;77.40;40.57;;;18.60;99.20;;;;;;5062726;28;20250;-79